Date,TemperatureHighF,TemperatureAvgF,TemperatureLowF,DewpointHighF,DewpointAvgF,DewpointLowF,HumidityHigh,HumidityAvg,HumidityLow,PressureMaxIn,PressureMinIn,WindSpeedMaxMPH,WindSpeedAvgMPH,GustSpeedMaxMPH,PrecipitationSumIn
2013-11-1,66.2,62.2,58.1,62.6,59.0,54.9,98,89,77,29.81,29.52,5,2,15,0.11
2013-11-2,66.0,56.1,47.3,55.3,46.3,40.6,94,72,41,29.74,29.59,2,0,15,0.00
2013-11-3,51.5,43.6,32.7,45.9,33.3,20.3,88,68,46,30.42,29.74,5,2,15,0.00
2013-11-4,42.1,34.5,28.0,25.5,19.6,14.9,78,56,33,30.69,30.42,6,2,15,0.00
2013-11-5,50.2,39.2,29.4,37.5,32.0,24.4,88,76,55,30.70,30.51,4,1,15,0.00
2013-11-6,58.4,49.0,37.5,53.5,44.4,36.1,97,85,62,30.52,30.07,4,1,15,0.00
2013-11-7,62.8,53.4,38.3,58.9,50.8,34.1,98,91,80,30.07,29.70,6,2,15,0.34
2013-11-8,47.4,40.0,34.8,34.0,30.4,24.2,92,70,48,30.14,29.85,6,2,15,0.00
2013-11-9,44.4,38.3,28.6,35.8,28.4,24.8,90,68,50,30.26,30.02,4,0,15,0.00
2013-11-10,58.5,46.7,40.0,41.7,37.6,34.3,83,71,47,30.02,29.74,5,1,15,0.01
2013-11-11,51.2,45.7,38.6,35.7,31.8,28.0,70,58,43,30.15,29.93,5,2,15,0.00
2013-11-12,49.9,35.4,26.7,38.6,26.7,17.0,94,71,56,30.22,29.90,6,3,15,0.05
2013-11-13,35.0,28.7,23.5,18.7,16.0,11.8,76,60,40,30.32,30.21,5,2,15,0.00
2013-11-14,49.3,40.5,27.8,26.9,20.7,15.7,73,47,31,30.23,30.10,3,1,15,0.00
2013-11-15,57.1,44.4,33.0,38.6,30.1,18.3,95,61,28,30.24,30.15,3,1,15,0.00
2013-11-16,58.4,45.7,35.4,41.9,37.1,30.9,96,75,42,30.32,30.22,3,0,15,0.00
2013-11-17,58.4,50.8,36.7,58.1,49.7,35.7,99,96,87,30.30,29.83,4,1,15,0.06
2013-11-18,63.5,57.8,46.8,61.3,47.1,32.2,100,71,41,29.83,29.57,6,2,15,0.60
2013-11-19,46.8,40.1,31.8,34.4,25.3,20.6,64,56,46,30.29,29.69,7,4,15,0.00
2013-11-20,39.1,31.3,23.4,21.4,18.7,13.7,83,61,39,30.63,30.30,7,3,15,0.00
2013-11-21,46.5,33.5,19.9,36.5,25.9,16.1,91,75,44,30.65,30.41,1,0,15,0.00
2013-11-22,51.2,45.9,40.3,50.3,44.1,36.7,98,93,86,30.40,29.85,1,0,15,0.10
2013-11-23,50.2,40.5,29.5,48.0,28.1,16.1,93,63,39,29.97,29.83,7,3,15,0.00
2013-11-24,29.4,23.2,20.4,17.1,6.4,0.9,60,48,36,30.27,29.87,9,5,17,0.00
2013-11-25,32.8,24.6,17.4,21.7,11.0,4.9,70,56,43,30.43,30.27,5,2,15,0.00
2013-11-26,43.5,36.3,32.5,43.0,26.6,20.2,98,69,46,30.34,29.96,4,1,15,0.27
2013-11-27,61.0,49.0,35.8,60.7,47.8,30.3,99,96,79,29.94,29.24,10,4,17,2.47
2013-11-28,36.3,29.3,21.5,31.2,18.1,10.5,85,64,42,30.47,29.57,7,3,15,0.00
2013-11-29,33.7,27.4,23.2,20.9,18.1,14.0,83,68,54,30.73,30.46,4,1,15,0.00
2013-11-30,32.2,24.8,15.9,26.7,16.8,10.5,88,72,43,30.78,30.41,4,1,15,0.00